sensor_id;sensor_type;location;lat;lon;timestamp;P1;durP1;ratioP1;P2;durP2;ratioP2
78410;SDS011;67706;51.074;-1.796;2023-10-13T00:01:53;0.30;;;0.20;;
78410;SDS011;67706;51.074;-1.796;2023-10-13T00:04:21;0.80;;;0.32;;
78410;SDS011;67706;51.074;-1.796;2023-10-13T00:06:50;0.47;;;0.40;;
78410;SDS011;67706;51.074;-1.796;2023-10-13T00:09:18;5.07;;;1.00;;
78410;SDS011;67706;51.074;-1.796;2023-10-13T00:11:50;4.07;;;1.00;;
78410;SDS011;67706;51.074;-1.796;2023-10-13T00:14:17;1.02;;;0.52;;
78410;SDS011;67706;51.074;-1.796;2023-10-13T00:16:46;2.65;;;1.13;;
78410;SDS011;67706;51.074;-1.796;2023-10-13T00:19:28;3.90;;;1.55;;
78410;SDS011;67706;51.074;-1.796;2023-10-13T00:22:02;6.00;;;2.00;;
78410;SDS011;67706;51.074;-1.796;2023-10-13T00:24:34;6.72;;;2.40;;
78410;SDS011;67706;51.074;-1.796;2023-10-13T00:27:07;3.80;;;1.90;;
78410;SDS011;67706;51.074;-1.796;2023-10-13T00:29:38;4.95;;;1.90;;
78410;SDS011;67706;51.074;-1.796;2023-10-13T00:32:05;4.60;;;1.92;;
78410;SDS011;67706;51.074;-1.796;2023-10-13T00:34:38;7.22;;;2.50;;
78410;SDS011;67706;51.074;-1.796;2023-10-13T00:37:05;10.82;;;2.58;;
78410;SDS011;67706;51.074;-1.796;2023-10-13T00:39:43;7.10;;;3.00;;
78410;SDS011;67706;51.074;-1.796;2023-10-13T00:42:10;9.38;;;2.83;;
78410;SDS011;67706;51.074;-1.796;2023-10-13T00:44:45;5.93;;;2.63;;
78410;SDS011;67706;51.074;-1.796;2023-10-13T00:47:14;6.90;;;2.90;;
78410;SDS011;67706;51.074;-1.796;2023-10-13T00:49:49;8.73;;;2.97;;
78410;SDS011;67706;51.074;-1.796;2023-10-13T00:52:16;9.90;;;2.72;;
78410;SDS011;67706;51.074;-1.796;2023-10-13T00:54:44;11.55;;;2.88;;
78410;SDS011;67706;51.074;-1.796;2023-10-13T00:57:11;9.60;;;3.53;;
78410;SDS011;67706;51.074;-1.796;2023-10-13T00:59:51;4.45;;;2.95;;
78410;SDS011;67706;51.074;-1.796;2023-10-13T01:02:18;12.75;;;3.67;;
78410;SDS011;67706;51.074;-1.796;2023-10-13T01:05:03;9.00;;;3.03;;
78410;SDS011;67706;51.074;-1.796;2023-10-13T01:07:34;8.77;;;3.17;;
78410;SDS011;67706;51.074;-1.796;2023-10-13T01:10:02;11.50;;;3.47;;
78410;SDS011;67706;51.074;-1.796;2023-10-13T01:12:29;10.98;;;3.63;;
78410;SDS011;67706;51.074;-1.796;2023-10-13T01:14:57;11.75;;;3.28;;
78410;SDS011;67706;51.074;-1.796;2023-10-13T01:17:24;7.65;;;2.97;;
78410;SDS011;67706;51.074;-1.796;2023-10-13T01:19:56;11.45;;;3.85;;
78410;SDS011;67706;51.074;-1.796;2023-10-13T01:22:25;12.50;;;3.75;;
78410;SDS011;67706;51.074;-1.796;2023-10-13T01:24:54;10.98;;;3.63;;
78410;SDS011;67706;51.074;-1.796;2023-10-13T01:27:30;12.13;;;3.70;;
78410;SDS011;67706;51.074;-1.796;2023-10-13T01:32:23;12.45;;;4.15;;
78410;SDS011;67706;51.074;-1.796;2023-10-13T01:34:50;14.07;;;3.72;;
78410;SDS011;67706;51.074;-1.796;2023-10-13T01:37:20;11.75;;;3.95;;
78410;SDS011;67706;51.074;-1.796;2023-10-13T01:39:47;12.23;;;3.83;;
78410;SDS011;67706;51.074;-1.796;2023-10-13T01:42:16;12.55;;;3.92;;
78410;SDS011;67706;51.074;-1.796;2023-10-13T01:44:45;13.55;;;3.83;;
78410;SDS011;67706;51.074;-1.796;2023-10-13T01:47:10;13.18;;;4.53;;
78410;SDS011;67706;51.074;-1.796;2023-10-13T01:49:37;16.50;;;4.75;;
78410;SDS011;67706;51.074;-1.796;2023-10-13T01:52:07;9.98;;;4.05;;
78410;SDS011;67706;51.074;-1.796;2023-10-13T01:54:36;9.88;;;4.20;;
78410;SDS011;67706;51.074;-1.796;2023-10-13T01:57:05;12.38;;;4.38;;
78410;SDS011;67706;51.074;-1.796;2023-10-13T01:59:34;16.98;;;4.47;;
78410;SDS011;67706;51.074;-1.796;2023-10-13T02:02:08;13.25;;;4.50;;
78410;SDS011;67706;51.074;-1.796;2023-10-13T02:04:37;14.57;;;4.45;;
78410;SDS011;67706;51.074;-1.796;2023-10-13T02:07:14;11.48;;;4.68;;
78410;SDS011;67706;51.074;-1.796;2023-10-13T02:09:41;16.38;;;4.60;;
78410;SDS011;67706;51.074;-1.796;2023-10-13T02:12:07;16.20;;;5.20;;
78410;SDS011;67706;51.074;-1.796;2023-10-13T02:14:36;16.30;;;5.13;;
78410;SDS011;67706;51.074;-1.796;2023-10-13T02:17:03;12.38;;;4.30;;
78410;SDS011;67706;51.074;-1.796;2023-10-13T02:19:38;13.88;;;4.68;;
78410;SDS011;67706;51.074;-1.796;2023-10-13T02:22:05;13.23;;;4.47;;
78410;SDS011;67706;51.074;-1.796;2023-10-13T02:24:35;13.38;;;4.18;;
78410;SDS011;67706;51.074;-1.796;2023-10-13T02:27:05;12.82;;;4.93;;
78410;SDS011;67706;51.074;-1.796;2023-10-13T02:29:39;18.45;;;4.70;;
78410;SDS011;67706;51.074;-1.796;2023-10-13T02:32:05;12.48;;;4.50;;
78410;SDS011;67706;51.074;-1.796;2023-10-13T02:34:38;13.98;;;4.05;;
78410;SDS011;67706;51.074;-1.796;2023-10-13T02:37:09;12.77;;;3.90;;
78410;SDS011;67706;51.074;-1.796;2023-10-13T02:39:35;13.40;;;4.10;;
78410;SDS011;67706;51.074;-1.796;2023-10-13T02:42:06;15.68;;;4.95;;
78410;SDS011;67706;51.074;-1.796;2023-10-13T02:44:32;13.88;;;4.28;;
78410;SDS011;67706;51.074;-1.796;2023-10-13T02:47:00;19.23;;;5.05;;
78410;SDS011;67706;51.074;-1.796;2023-10-13T02:49:30;15.15;;;5.00;;
78410;SDS011;67706;51.074;-1.796;2023-10-13T02:51:59;16.35;;;4.63;;
78410;SDS011;67706;51.074;-1.796;2023-10-13T02:54:30;14.65;;;5.00;;
78410;SDS011;67706;51.074;-1.796;2023-10-13T02:57:04;15.18;;;4.43;;
78410;SDS011;67706;51.074;-1.796;2023-10-13T03:02:06;14.18;;;4.55;;
78410;SDS011;67706;51.074;-1.796;2023-10-13T03:04:42;17.35;;;4.07;;
78410;SDS011;67706;51.074;-1.796;2023-10-13T03:07:09;19.00;;;4.80;;
78410;SDS011;67706;51.074;-1.796;2023-10-13T03:12:02;11.70;;;3.97;;
78410;SDS011;67706;51.074;-1.796;2023-10-13T03:14:29;15.77;;;4.60;;
78410;SDS011;67706;51.074;-1.796;2023-10-13T03:16:57;13.73;;;4.20;;
78410;SDS011;67706;51.074;-1.796;2023-10-13T03:19:29;15.55;;;4.75;;
78410;SDS011;67706;51.074;-1.796;2023-10-13T03:21:59;15.30;;;4.38;;
78410;SDS011;67706;51.074;-1.796;2023-10-13T03:24:34;14.40;;;4.28;;
78410;SDS011;67706;51.074;-1.796;2023-10-13T03:27:01;14.80;;;4.70;;
78410;SDS011;67706;51.074;-1.796;2023-10-13T03:29:36;18.70;;;4.57;;
78410;SDS011;67706;51.074;-1.796;2023-10-13T03:32:09;15.43;;;4.53;;
78410;SDS011;67706;51.074;-1.796;2023-10-13T03:34:39;11.57;;;3.97;;
78410;SDS011;67706;51.074;-1.796;2023-10-13T03:37:15;12.05;;;3.90;;
78410;SDS011;67706;51.074;-1.796;2023-10-13T03:40:03;11.27;;;3.95;;
78410;SDS011;67706;51.074;-1.796;2023-10-13T03:42:41;12.95;;;4.15;;
78410;SDS011;67706;51.074;-1.796;2023-10-13T03:47:35;14.25;;;3.80;;
78410;SDS011;67706;51.074;-1.796;2023-10-13T03:50:05;15.20;;;4.35;;
78410;SDS011;67706;51.074;-1.796;2023-10-13T03:52:42;11.30;;;3.83;;
78410;SDS011;67706;51.074;-1.796;2023-10-13T03:55:12;14.38;;;4.03;;
78410;SDS011;67706;51.074;-1.796;2023-10-13T03:57:43;11.60;;;3.38;;
78410;SDS011;67706;51.074;-1.796;2023-10-13T04:00:15;14.27;;;3.90;;
78410;SDS011;67706;51.074;-1.796;2023-10-13T04:02:48;13.02;;;4.13;;
78410;SDS011;67706;51.074;-1.796;2023-10-13T04:05:21;11.57;;;3.92;;
78410;SDS011;67706;51.074;-1.796;2023-10-13T04:08:02;17.83;;;4.30;;
78410;SDS011;67706;51.074;-1.796;2023-10-13T04:10:46;10.57;;;3.60;;
78410;SDS011;67706;51.074;-1.796;2023-10-13T04:13:30;10.63;;;3.28;;
78410;SDS011;67706;51.074;-1.796;2023-10-13T04:16:13;13.93;;;4.18;;
78410;SDS011;67706;51.074;-1.796;2023-10-13T04:18:57;10.00;;;3.60;;
78410;SDS011;67706;51.074;-1.796;2023-10-13T04:21:34;14.25;;;3.90;;
78410;SDS011;67706;51.074;-1.796;2023-10-13T04:24:20;22.02;;;4.35;;
78410;SDS011;67706;51.074;-1.796;2023-10-13T04:26:53;15.40;;;3.80;;
78410;SDS011;67706;51.074;-1.796;2023-10-13T04:29:39;18.17;;;4.47;;
78410;SDS011;67706;51.074;-1.796;2023-10-13T04:32:16;17.15;;;4.30;;
78410;SDS011;67706;51.074;-1.796;2023-10-13T04:34:53;10.65;;;3.53;;
78410;SDS011;67706;51.074;-1.796;2023-10-13T04:37:24;17.17;;;4.25;;
78410;SDS011;67706;51.074;-1.796;2023-10-13T04:39:54;11.07;;;3.08;;
78410;SDS011;67706;51.074;-1.796;2023-10-13T04:42:25;14.30;;;3.83;;
78410;SDS011;67706;51.074;-1.796;2023-10-13T04:45:05;12.38;;;3.88;;
78410;SDS011;67706;51.074;-1.796;2023-10-13T04:50:39;14.90;;;4.28;;
78410;SDS011;67706;51.074;-1.796;2023-10-13T04:53:11;21.08;;;4.03;;
78410;SDS011;67706;51.074;-1.796;2023-10-13T04:55:53;22.27;;;4.25;;
78410;SDS011;67706;51.074;-1.796;2023-10-13T04:58:53;13.80;;;3.45;;
78410;SDS011;67706;51.074;-1.796;2023-10-13T05:01:37;18.60;;;4.28;;
78410;SDS011;67706;51.074;-1.796;2023-10-13T05:04:18;16.08;;;3.63;;
78410;SDS011;67706;51.074;-1.796;2023-10-13T05:07:02;14.48;;;3.88;;
78410;SDS011;67706;51.074;-1.796;2023-10-13T05:09:48;20.92;;;4.05;;
78410;SDS011;67706;51.074;-1.796;2023-10-13T05:12:32;17.48;;;3.85;;
78410;SDS011;67706;51.074;-1.796;2023-10-13T05:15:15;18.52;;;4.60;;
78410;SDS011;67706;51.074;-1.796;2023-10-13T05:17:59;23.98;;;4.60;;
78410;SDS011;67706;51.074;-1.796;2023-10-13T05:20:43;25.27;;;4.38;;
78410;SDS011;67706;51.074;-1.796;2023-10-13T05:23:27;17.58;;;4.28;;
78410;SDS011;67706;51.074;-1.796;2023-10-13T05:26:12;21.98;;;4.38;;
78410;SDS011;67706;51.074;-1.796;2023-10-13T05:28:56;17.90;;;4.72;;
78410;SDS011;67706;51.074;-1.796;2023-10-13T05:31:40;18.77;;;4.85;;
78410;SDS011;67706;51.074;-1.796;2023-10-13T05:34:24;24.88;;;5.32;;
78410;SDS011;67706;51.074;-1.796;2023-10-13T05:37:08;14.30;;;4.57;;
78410;SDS011;67706;51.074;-1.796;2023-10-13T05:39:52;20.88;;;4.88;;
78410;SDS011;67706;51.074;-1.796;2023-10-13T05:42:37;24.30;;;4.82;;
78410;SDS011;67706;51.074;-1.796;2023-10-13T05:45:21;20.10;;;3.83;;
78410;SDS011;67706;51.074;-1.796;2023-10-13T05:48:05;20.55;;;4.75;;
78410;SDS011;67706;51.074;-1.796;2023-10-13T05:53:43;15.27;;;4.03;;
78410;SDS011;67706;51.074;-1.796;2023-10-13T05:56:27;18.40;;;4.25;;
78410;SDS011;67706;51.074;-1.796;2023-10-13T05:59:12;34.20;;;23.95;;
78410;SDS011;67706;51.074;-1.796;2023-10-13T06:01:56;19.00;;;4.00;;
78410;SDS011;67706;51.074;-1.796;2023-10-13T06:04:51;17.17;;;3.85;;
78410;SDS011;67706;51.074;-1.796;2023-10-13T06:07:35;15.40;;;3.92;;
78410;SDS011;67706;51.074;-1.796;2023-10-13T06:10:19;20.38;;;4.40;;
78410;SDS011;67706;51.074;-1.796;2023-10-13T06:12:59;25.52;;;4.35;;
78410;SDS011;67706;51.074;-1.796;2023-10-13T06:15:45;23.45;;;4.63;;
78410;SDS011;67706;51.074;-1.796;2023-10-13T06:18:29;16.80;;;4.47;;
78410;SDS011;67706;51.074;-1.796;2023-10-13T06:21:12;18.27;;;4.30;;
78410;SDS011;67706;51.074;-1.796;2023-10-13T06:23:57;22.42;;;4.53;;
78410;SDS011;67706;51.074;-1.796;2023-10-13T06:26:47;20.02;;;4.13;;
78410;SDS011;67706;51.074;-1.796;2023-10-13T06:29:31;20.73;;;4.85;;
78410;SDS011;67706;51.074;-1.796;2023-10-13T06:31:59;16.77;;;4.32;;
78410;SDS011;67706;51.074;-1.796;2023-10-13T06:34:26;20.48;;;5.30;;
78410;SDS011;67706;51.074;-1.796;2023-10-13T06:37:03;24.83;;;5.20;;
78410;SDS011;67706;51.074;-1.796;2023-10-13T06:39:47;20.48;;;4.88;;
78410;SDS011;67706;51.074;-1.796;2023-10-13T06:42:13;16.20;;;4.53;;
78410;SDS011;67706;51.074;-1.796;2023-10-13T06:44:41;16.90;;;4.40;;
78410;SDS011;67706;51.074;-1.796;2023-10-13T06:47:12;23.15;;;5.10;;
78410;SDS011;67706;51.074;-1.796;2023-10-13T06:49:39;23.05;;;5.65;;
78410;SDS011;67706;51.074;-1.796;2023-10-13T06:52:08;15.57;;;4.75;;
78410;SDS011;67706;51.074;-1.796;2023-10-13T06:54:36;15.00;;;4.00;;
78410;SDS011;67706;51.074;-1.796;2023-10-13T06:57:03;20.13;;;4.30;;
78410;SDS011;67706;51.074;-1.796;2023-10-13T06:59:32;21.42;;;4.45;;
78410;SDS011;67706;51.074;-1.796;2023-10-13T07:02:00;11.90;;;3.63;;
78410;SDS011;67706;51.074;-1.796;2023-10-13T07:04:32;11.98;;;3.78;;
78410;SDS011;67706;51.074;-1.796;2023-10-13T07:06:58;12.27;;;3.50;;
78410;SDS011;67706;51.074;-1.796;2023-10-13T07:09:26;11.15;;;3.20;;
78410;SDS011;67706;51.074;-1.796;2023-10-13T07:12:14;18.10;;;4.05;;
78410;SDS011;67706;51.074;-1.796;2023-10-13T07:14:47;17.10;;;4.32;;
78410;SDS011;67706;51.074;-1.796;2023-10-13T07:17:18;17.05;;;4.22;;
78410;SDS011;67706;51.074;-1.796;2023-10-13T07:19:50;17.75;;;4.70;;
78410;SDS011;67706;51.074;-1.796;2023-10-13T07:22:21;17.08;;;4.45;;
78410;SDS011;67706;51.074;-1.796;2023-10-13T07:24:50;9.55;;;4.20;;
78410;SDS011;67706;51.074;-1.796;2023-10-13T07:27:18;13.38;;;4.28;;
78410;SDS011;67706;51.074;-1.796;2023-10-13T07:29:50;15.25;;;4.22;;
78410;SDS011;67706;51.074;-1.796;2023-10-13T07:32:31;16.17;;;4.78;;
78410;SDS011;67706;51.074;-1.796;2023-10-13T07:35:00;20.85;;;5.53;;
78410;SDS011;67706;51.074;-1.796;2023-10-13T07:37:30;20.13;;;6.00;;
78410;SDS011;67706;51.074;-1.796;2023-10-13T07:39:57;17.25;;;5.70;;
78410;SDS011;67706;51.074;-1.796;2023-10-13T07:42:24;14.43;;;5.32;;
78410;SDS011;67706;51.074;-1.796;2023-10-13T07:44:57;18.15;;;5.18;;
78410;SDS011;67706;51.074;-1.796;2023-10-13T07:47:24;22.65;;;5.70;;
78410;SDS011;67706;51.074;-1.796;2023-10-13T07:49:53;17.10;;;5.35;;
78410;SDS011;67706;51.074;-1.796;2023-10-13T07:52:23;23.45;;;6.05;;
78410;SDS011;67706;51.074;-1.796;2023-10-13T07:55:01;24.98;;;5.40;;
78410;SDS011;67706;51.074;-1.796;2023-10-13T07:57:36;13.00;;;4.68;;
78410;SDS011;67706;51.074;-1.796;2023-10-13T08:00:18;18.00;;;4.82;;
78410;SDS011;67706;51.074;-1.796;2023-10-13T08:02:56;15.98;;;4.47;;
78410;SDS011;67706;51.074;-1.796;2023-10-13T08:05:33;17.02;;;4.30;;
78410;SDS011;67706;51.074;-1.796;2023-10-13T08:08:22;12.98;;;4.10;;
78410;SDS011;67706;51.074;-1.796;2023-10-13T08:10:51;16.20;;;4.88;;
78410;SDS011;67706;51.074;-1.796;2023-10-13T08:13:20;19.95;;;5.15;;
78410;SDS011;67706;51.074;-1.796;2023-10-13T08:15:48;21.90;;;5.78;;
78410;SDS011;67706;51.074;-1.796;2023-10-13T08:18:17;18.45;;;5.93;;
78410;SDS011;67706;51.074;-1.796;2023-10-13T08:20:55;19.52;;;5.15;;
78410;SDS011;67706;51.074;-1.796;2023-10-13T08:23:29;23.50;;;5.97;;
78410;SDS011;67706;51.074;-1.796;2023-10-13T08:26:16;20.05;;;5.35;;
78410;SDS011;67706;51.074;-1.796;2023-10-13T08:29:22;23.85;;;5.80;;
78410;SDS011;67706;51.074;-1.796;2023-10-13T08:32:07;21.08;;;6.35;;
78410;SDS011;67706;51.074;-1.796;2023-10-13T08:35:09;19.10;;;5.80;;
78410;SDS011;67706;51.074;-1.796;2023-10-13T08:37:48;20.25;;;6.32;;
78410;SDS011;67706;51.074;-1.796;2023-10-13T08:40:26;10.30;;;4.15;;
78410;SDS011;67706;51.074;-1.796;2023-10-13T08:43:11;24.38;;;6.80;;
78410;SDS011;67706;51.074;-1.796;2023-10-13T08:45:39;22.25;;;5.25;;
78410;SDS011;67706;51.074;-1.796;2023-10-13T08:48:25;26.30;;;6.70;;
78410;SDS011;67706;51.074;-1.796;2023-10-13T08:50:57;21.67;;;5.88;;
78410;SDS011;67706;51.074;-1.796;2023-10-13T08:53:35;17.98;;;5.50;;
78410;SDS011;67706;51.074;-1.796;2023-10-13T08:56:12;23.13;;;6.57;;
78410;SDS011;67706;51.074;-1.796;2023-10-13T08:58:43;15.02;;;5.57;;
78410;SDS011;67706;51.074;-1.796;2023-10-13T09:01:30;20.48;;;5.65;;
78410;SDS011;67706;51.074;-1.796;2023-10-13T09:04:02;12.93;;;4.80;;
78410;SDS011;67706;51.074;-1.796;2023-10-13T09:06:44;22.10;;;5.72;;
78410;SDS011;67706;51.074;-1.796;2023-10-13T09:09:12;16.15;;;5.43;;
78410;SDS011;67706;51.074;-1.796;2023-10-13T09:11:53;16.92;;;5.88;;
78410;SDS011;67706;51.074;-1.796;2023-10-13T09:14:33;17.35;;;5.22;;
78410;SDS011;67706;51.074;-1.796;2023-10-13T09:17:04;20.38;;;5.50;;
78410;SDS011;67706;51.074;-1.796;2023-10-13T09:19:46;18.58;;;5.05;;
78410;SDS011;67706;51.074;-1.796;2023-10-13T09:22:21;15.35;;;5.30;;
78410;SDS011;67706;51.074;-1.796;2023-10-13T09:24:58;17.52;;;5.45;;
78410;SDS011;67706;51.074;-1.796;2023-10-13T09:27:26;14.50;;;4.95;;
78410;SDS011;67706;51.074;-1.796;2023-10-13T09:29:57;19.13;;;6.10;;
78410;SDS011;67706;51.074;-1.796;2023-10-13T09:32:32;20.15;;;5.60;;
78410;SDS011;67706;51.074;-1.796;2023-10-13T09:35:10;17.17;;;5.38;;
78410;SDS011;67706;51.074;-1.796;2023-10-13T09:37:40;21.60;;;5.65;;
78410;SDS011;67706;51.074;-1.796;2023-10-13T09:40:07;18.13;;;5.22;;
78410;SDS011;67706;51.074;-1.796;2023-10-13T09:42:51;16.08;;;5.53;;
78410;SDS011;67706;51.074;-1.796;2023-10-13T09:45:21;16.73;;;4.43;;
78410;SDS011;67706;51.074;-1.796;2023-10-13T09:47:52;14.27;;;5.07;;
78410;SDS011;67706;51.074;-1.796;2023-10-13T09:50:22;17.08;;;5.30;;
78410;SDS011;67706;51.074;-1.796;2023-10-13T09:52:52;24.50;;;5.55;;
78410;SDS011;67706;51.074;-1.796;2023-10-13T09:55:23;19.92;;;5.60;;
78410;SDS011;67706;51.074;-1.796;2023-10-13T09:57:56;22.38;;;5.63;;
78410;SDS011;67706;51.074;-1.796;2023-10-13T10:00:35;22.60;;;5.32;;
78410;SDS011;67706;51.074;-1.796;2023-10-13T10:03:13;26.90;;;5.50;;
78410;SDS011;67706;51.074;-1.796;2023-10-13T10:05:57;20.70;;;5.20;;
78410;SDS011;67706;51.074;-1.796;2023-10-13T10:08:31;24.15;;;5.38;;
78410;SDS011;67706;51.074;-1.796;2023-10-13T10:11:00;19.83;;;4.53;;
78410;SDS011;67706;51.074;-1.796;2023-10-13T10:13:53;17.05;;;4.78;;
78410;SDS011;67706;51.074;-1.796;2023-10-13T10:16:36;17.67;;;4.82;;
78410;SDS011;67706;51.074;-1.796;2023-10-13T10:19:07;16.02;;;4.78;;
78410;SDS011;67706;51.074;-1.796;2023-10-13T10:21:34;21.73;;;5.75;;
78410;SDS011;67706;51.074;-1.796;2023-10-13T10:24:01;20.05;;;4.80;;
78410;SDS011;67706;51.074;-1.796;2023-10-13T10:26:33;25.80;;;5.10;;
78410;SDS011;67706;51.074;-1.796;2023-10-13T10:29:10;19.95;;;3.42;;
78410;SDS011;67706;51.074;-1.796;2023-10-13T10:31:39;19.10;;;3.92;;
78410;SDS011;67706;51.074;-1.796;2023-10-13T10:34:11;17.27;;;5.07;;
78410;SDS011;67706;51.074;-1.796;2023-10-13T10:36:39;17.23;;;3.95;;
78410;SDS011;67706;51.074;-1.796;2023-10-13T10:39:08;18.67;;;3.95;;
78410;SDS011;67706;51.074;-1.796;2023-10-13T10:41:37;16.20;;;4.20;;
78410;SDS011;67706;51.074;-1.796;2023-10-13T10:44:12;19.98;;;4.55;;
78410;SDS011;67706;51.074;-1.796;2023-10-13T10:46:42;17.38;;;4.03;;
78410;SDS011;67706;51.074;-1.796;2023-10-13T10:49:17;15.52;;;3.83;;
78410;SDS011;67706;51.074;-1.796;2023-10-13T10:51:52;18.25;;;4.18;;
78410;SDS011;67706;51.074;-1.796;2023-10-13T10:54:26;17.85;;;3.83;;
78410;SDS011;67706;51.074;-1.796;2023-10-13T10:56:56;20.05;;;4.90;;
78410;SDS011;67706;51.074;-1.796;2023-10-13T10:59:37;14.73;;;3.60;;
78410;SDS011;67706;51.074;-1.796;2023-10-13T11:02:04;19.23;;;3.90;;
78410;SDS011;67706;51.074;-1.796;2023-10-13T11:04:34;19.58;;;3.58;;
78410;SDS011;67706;51.074;-1.796;2023-10-13T11:07:05;13.52;;;3.58;;
78410;SDS011;67706;51.074;-1.796;2023-10-13T11:09:34;10.93;;;2.25;;
78410;SDS011;67706;51.074;-1.796;2023-10-13T11:12:11;13.60;;;2.85;;
78410;SDS011;67706;51.074;-1.796;2023-10-13T11:14:59;11.50;;;2.75;;
78410;SDS011;67706;51.074;-1.796;2023-10-13T11:20:10;12.82;;;2.85;;
78410;SDS011;67706;51.074;-1.796;2023-10-13T11:22:50;12.48;;;2.95;;
78410;SDS011;67706;51.074;-1.796;2023-10-13T11:25:22;10.82;;;2.47;;
78410;SDS011;67706;51.074;-1.796;2023-10-13T11:27:54;10.50;;;2.10;;
78410;SDS011;67706;51.074;-1.796;2023-10-13T11:30:24;15.07;;;3.15;;
78410;SDS011;67706;51.074;-1.796;2023-10-13T11:33:01;9.55;;;2.30;;
78410;SDS011;67706;51.074;-1.796;2023-10-13T11:35:30;10.82;;;1.83;;
78410;SDS011;67706;51.074;-1.796;2023-10-13T11:38:11;14.27;;;2.25;;
78410;SDS011;67706;51.074;-1.796;2023-10-13T11:40:39;8.57;;;1.75;;
78410;SDS011;67706;51.074;-1.796;2023-10-13T11:43:32;8.90;;;1.55;;
78410;SDS011;67706;51.074;-1.796;2023-10-13T11:46:01;9.82;;;2.00;;
78410;SDS011;67706;51.074;-1.796;2023-10-13T11:48:38;7.95;;;1.30;;
78410;SDS011;67706;51.074;-1.796;2023-10-13T11:51:07;6.80;;;1.25;;
78410;SDS011;67706;51.074;-1.796;2023-10-13T11:53:42;11.65;;;1.83;;
78410;SDS011;67706;51.074;-1.796;2023-10-13T11:56:09;11.13;;;2.15;;
78410;SDS011;67706;51.074;-1.796;2023-10-13T11:58:36;6.43;;;1.42;;
78410;SDS011;67706;51.074;-1.796;2023-10-13T12:01:05;7.80;;;1.30;;
78410;SDS011;67706;51.074;-1.796;2023-10-13T12:03:45;8.18;;;1.40;;
78410;SDS011;67706;51.074;-1.796;2023-10-13T12:06:31;11.02;;;1.52;;
78410;SDS011;67706;51.074;-1.796;2023-10-13T12:09:12;12.85;;;1.20;;
78410;SDS011;67706;51.074;-1.796;2023-10-13T12:11:57;8.90;;;1.80;;
78410;SDS011;67706;51.074;-1.796;2023-10-13T12:14:25;12.38;;;1.67;;
78410;SDS011;67706;51.074;-1.796;2023-10-13T12:16:56;10.52;;;1.40;;
78410;SDS011;67706;51.074;-1.796;2023-10-13T12:19:29;14.40;;;1.65;;
78410;SDS011;67706;51.074;-1.796;2023-10-13T12:21:56;5.90;;;1.73;;
78410;SDS011;67706;51.074;-1.796;2023-10-13T12:24:29;10.95;;;1.92;;
78410;SDS011;67706;51.074;-1.796;2023-10-13T12:27:05;10.18;;;1.98;;
78410;SDS011;67706;51.074;-1.796;2023-10-13T12:29:44;15.23;;;1.73;;
78410;SDS011;67706;51.074;-1.796;2023-10-13T12:32:12;10.35;;;2.00;;
78410;SDS011;67706;51.074;-1.796;2023-10-13T12:34:40;10.73;;;1.52;;
78410;SDS011;67706;51.074;-1.796;2023-10-13T12:37:25;7.38;;;1.15;;
78410;SDS011;67706;51.074;-1.796;2023-10-13T12:40:16;7.35;;;1.08;;
78410;SDS011;67706;51.074;-1.796;2023-10-13T12:43:02;8.32;;;1.50;;
78410;SDS011;67706;51.074;-1.796;2023-10-13T12:45:47;6.90;;;1.10;;
78410;SDS011;67706;51.074;-1.796;2023-10-13T12:48:33;9.00;;;1.25;;
78410;SDS011;67706;51.074;-1.796;2023-10-13T12:51:18;11.43;;;1.42;;
78410;SDS011;67706;51.074;-1.796;2023-10-13T12:53:46;11.55;;;1.42;;
78410;SDS011;67706;51.074;-1.796;2023-10-13T12:56:13;15.48;;;1.52;;
78410;SDS011;67706;51.074;-1.796;2023-10-13T12:58:40;10.60;;;1.85;;
78410;SDS011;67706;51.074;-1.796;2023-10-13T13:01:16;10.25;;;1.10;;
78410;SDS011;67706;51.074;-1.796;2023-10-13T13:03:47;13.30;;;2.13;;
78410;SDS011;67706;51.074;-1.796;2023-10-13T13:06:18;7.90;;;1.42;;
78410;SDS011;67706;51.074;-1.796;2023-10-13T13:08:50;11.90;;;1.60;;
78410;SDS011;67706;51.074;-1.796;2023-10-13T13:11:17;8.25;;;1.67;;
78410;SDS011;67706;51.074;-1.796;2023-10-13T13:13:43;17.98;;;3.15;;
78410;SDS011;67706;51.074;-1.796;2023-10-13T13:16:11;6.80;;;1.30;;
78410;SDS011;67706;51.074;-1.796;2023-10-13T13:18:38;11.80;;;1.95;;
78410;SDS011;67706;51.074;-1.796;2023-10-13T13:21:06;9.57;;;1.38;;
78410;SDS011;67706;51.074;-1.796;2023-10-13T13:26:05;12.98;;;1.85;;
78410;SDS011;67706;51.074;-1.796;2023-10-13T13:28:40;9.15;;;1.20;;
78410;SDS011;67706;51.074;-1.796;2023-10-13T13:31:07;7.65;;;1.45;;
78410;SDS011;67706;51.074;-1.796;2023-10-13T13:33:37;9.07;;;1.35;;
78410;SDS011;67706;51.074;-1.796;2023-10-13T13:36:09;7.25;;;1.35;;
78410;SDS011;67706;51.074;-1.796;2023-10-13T13:38:40;11.98;;;1.70;;
78410;SDS011;67706;51.074;-1.796;2023-10-13T13:41:11;9.25;;;1.00;;
78410;SDS011;67706;51.074;-1.796;2023-10-13T13:43:41;9.63;;;1.33;;
78410;SDS011;67706;51.074;-1.796;2023-10-13T13:46:15;8.73;;;1.48;;
78410;SDS011;67706;51.074;-1.796;2023-10-13T13:48:43;5.50;;;1.15;;
78410;SDS011;67706;51.074;-1.796;2023-10-13T13:51:14;9.13;;;1.30;;
78410;SDS011;67706;51.074;-1.796;2023-10-13T13:53:40;7.28;;;0.80;;
78410;SDS011;67706;51.074;-1.796;2023-10-13T13:56:10;3.35;;;0.93;;
78410;SDS011;67706;51.074;-1.796;2023-10-13T13:58:41;4.78;;;0.60;;
78410;SDS011;67706;51.074;-1.796;2023-10-13T14:01:07;7.15;;;1.23;;
78410;SDS011;67706;51.074;-1.796;2023-10-13T14:03:39;6.43;;;0.93;;
78410;SDS011;67706;51.074;-1.796;2023-10-13T14:06:10;5.95;;;0.90;;
78410;SDS011;67706;51.074;-1.796;2023-10-13T14:08:44;5.80;;;1.15;;
78410;SDS011;67706;51.074;-1.796;2023-10-13T14:11:13;5.55;;;0.70;;
78410;SDS011;67706;51.074;-1.796;2023-10-13T14:14:08;11.07;;;1.30;;
78410;SDS011;67706;51.074;-1.796;2023-10-13T14:16:37;6.15;;;0.90;;
78410;SDS011;67706;51.074;-1.796;2023-10-13T14:21:36;7.32;;;0.85;;
78410;SDS011;67706;51.074;-1.796;2023-10-13T14:24:04;4.40;;;0.88;;
78410;SDS011;67706;51.074;-1.796;2023-10-13T14:26:38;8.07;;;1.05;;
78410;SDS011;67706;51.074;-1.796;2023-10-13T14:29:09;6.22;;;1.30;;
78410;SDS011;67706;51.074;-1.796;2023-10-13T14:31:39;12.50;;;1.27;;
78410;SDS011;67706;51.074;-1.796;2023-10-13T14:34:06;7.78;;;0.80;;
78410;SDS011;67706;51.074;-1.796;2023-10-13T14:36:33;7.75;;;0.88;;
78410;SDS011;67706;51.074;-1.796;2023-10-13T14:39:00;7.75;;;1.02;;
78410;SDS011;67706;51.074;-1.796;2023-10-13T14:41:29;11.38;;;1.65;;
78410;SDS011;67706;51.074;-1.796;2023-10-13T14:43:56;6.28;;;1.40;;
78410;SDS011;67706;51.074;-1.796;2023-10-13T14:46:30;6.43;;;1.30;;
78410;SDS011;67706;51.074;-1.796;2023-10-13T14:49:00;12.05;;;1.70;;
78410;SDS011;67706;51.074;-1.796;2023-10-13T14:51:27;7.70;;;1.20;;
78410;SDS011;67706;51.074;-1.796;2023-10-13T14:53:54;6.53;;;1.20;;
78410;SDS011;67706;51.074;-1.796;2023-10-13T14:56:22;9.80;;;1.42;;
78410;SDS011;67706;51.074;-1.796;2023-10-13T14:58:52;8.88;;;1.40;;
78410;SDS011;67706;51.074;-1.796;2023-10-13T15:01:19;5.72;;;0.90;;
78410;SDS011;67706;51.074;-1.796;2023-10-13T15:03:48;6.15;;;0.93;;
78410;SDS011;67706;51.074;-1.796;2023-10-13T15:06:17;7.70;;;1.00;;
78410;SDS011;67706;51.074;-1.796;2023-10-13T15:08:45;7.47;;;1.10;;
78410;SDS011;67706;51.074;-1.796;2023-10-13T15:11:13;9.95;;;1.27;;
78410;SDS011;67706;51.074;-1.796;2023-10-13T15:13:40;6.90;;;1.00;;
78410;SDS011;67706;51.074;-1.796;2023-10-13T15:16:15;6.95;;;1.00;;
78410;SDS011;67706;51.074;-1.796;2023-10-13T15:18:43;7.00;;;0.90;;
78410;SDS011;67706;51.074;-1.796;2023-10-13T15:21:11;8.90;;;1.05;;
78410;SDS011;67706;51.074;-1.796;2023-10-13T15:23:38;9.48;;;1.27;;
78410;SDS011;67706;51.074;-1.796;2023-10-13T15:26:08;5.20;;;1.15;;
78410;SDS011;67706;51.074;-1.796;2023-10-13T15:28:38;4.60;;;0.77;;